createdAt,value
2023-02-18T00:00:29.392Z,99.90
2023-02-18T00:02:56.383Z,99.90
2023-02-18T00:05:23.557Z,99.90
2023-02-18T00:07:50.630Z,99.90
2023-02-18T00:10:17.923Z,99.90
2023-02-18T00:12:45.303Z,99.90
2023-02-18T00:15:12.116Z,99.90
2023-02-18T00:17:39.059Z,99.90
2023-02-18T00:20:07.008Z,99.90
2023-02-18T00:22:33.862Z,99.90
2023-02-18T00:25:00.658Z,99.90
2023-02-18T00:27:27.463Z,99.90
2023-02-18T00:29:54.283Z,99.90
2023-02-18T00:32:21.093Z,99.90
2023-02-18T00:34:47.862Z,99.90
2023-02-18T00:37:14.643Z,99.90
2023-02-18T00:39:41.485Z,99.90
2023-02-18T00:42:08.366Z,99.90
2023-02-18T00:44:35.142Z,99.90
2023-02-18T00:47:01.989Z,99.90
2023-02-18T00:49:28.818Z,99.90
2023-02-18T00:51:55.625Z,99.90
2023-02-18T00:54:22.529Z,99.90
2023-02-18T00:56:49.367Z,99.90
2023-02-18T00:59:16.151Z,99.90
2023-02-18T01:01:43.038Z,99.90
2023-02-18T01:04:09.920Z,99.90
2023-02-18T01:06:36.975Z,99.90
2023-02-18T01:09:05.072Z,99.90
2023-02-18T01:11:32.207Z,99.90
2023-02-18T01:13:59.076Z,99.90
2023-02-18T01:16:25.926Z,99.90
2023-02-18T01:18:52.957Z,99.90
2023-02-18T01:21:19.737Z,99.90
2023-02-18T01:23:46.674Z,99.90
2023-02-18T01:26:13.569Z,99.90
2023-02-18T01:28:41.655Z,99.90
2023-02-18T01:31:10.756Z,99.90
2023-02-18T01:33:37.790Z,99.90
2023-02-18T01:36:05.961Z,99.90
2023-02-18T01:38:32.970Z,99.90
2023-02-18T01:40:59.924Z,99.90
2023-02-18T01:43:26.718Z,99.90
2023-02-18T01:46:06.030Z,99.90
2023-02-18T01:48:39.785Z,99.90
2023-02-18T01:51:32.418Z,99.90
2023-02-18T01:54:03.038Z,99.90
2023-02-18T01:56:34.050Z,99.90
2023-02-18T01:59:04.073Z,99.90
2023-02-18T02:01:32.412Z,99.90
2023-02-18T02:03:59.499Z,99.90
2023-02-18T02:06:26.684Z,99.90
2023-02-18T02:08:58.673Z,99.90
2023-02-18T02:11:46.735Z,99.90
2023-02-18T02:14:13.482Z,99.90
2023-02-18T02:16:59.104Z,99.90
2023-02-18T02:20:04.391Z,99.90
2023-02-18T02:23:03.504Z,99.90
2023-02-18T02:25:41.970Z,99.90
2023-02-18T02:28:11.821Z,99.90
2023-02-18T02:31:36.921Z,99.90
2023-02-18T02:34:40.445Z,99.90
2023-02-18T02:37:25.391Z,99.90
2023-02-18T02:40:11.756Z,99.90
2023-02-18T02:43:32.962Z,99.90
2023-02-18T02:46:26.602Z,99.90
2023-02-18T02:49:11.320Z,99.90
2023-02-18T02:51:50.307Z,99.90
2023-02-18T02:54:19.058Z,99.90
2023-02-18T02:56:45.968Z,99.90
2023-02-18T02:59:24.673Z,99.90
2023-02-18T03:02:13.026Z,99.90
2023-02-18T03:05:03.138Z,99.90
2023-02-18T03:07:57.126Z,99.90
2023-02-18T03:10:42.646Z,99.90
2023-02-18T03:13:31.454Z,99.90
2023-02-18T03:16:00.990Z,99.90
2023-02-18T03:18:41.181Z,99.90
2023-02-18T03:21:16.452Z,99.90
2023-02-18T03:23:56.334Z,99.90
2023-02-18T03:26:26.234Z,99.90
2023-02-18T03:28:56.667Z,99.90
2023-02-18T03:31:27.869Z,99.90
2023-02-18T03:34:23.124Z,99.90
2023-02-18T03:36:50.085Z,99.90
2023-02-18T03:39:22.916Z,99.90
2023-02-18T03:41:49.996Z,99.90
2023-02-18T03:44:16.764Z,99.90
2023-02-18T03:46:45.165Z,99.90
2023-02-18T03:49:13.846Z,99.90
2023-02-18T03:51:40.951Z,99.90
2023-02-18T03:54:07.946Z,99.90
2023-02-18T03:56:36.175Z,99.90
2023-02-18T03:59:03.714Z,99.90
2023-02-18T04:01:30.616Z,99.90
2023-02-18T04:03:57.500Z,99.90
2023-02-18T04:06:24.860Z,99.90
2023-02-18T04:08:51.663Z,99.90
2023-02-18T04:11:18.535Z,99.90
2023-02-18T04:13:45.399Z,99.90
2023-02-18T04:16:12.514Z,99.90
2023-02-18T04:18:39.366Z,99.90
2023-02-18T04:21:06.592Z,99.90
2023-02-18T04:23:33.571Z,99.90
2023-02-18T04:26:00.363Z,99.90
2023-02-18T04:28:27.178Z,99.90
2023-02-18T04:30:54.008Z,99.90
2023-02-18T04:33:20.803Z,99.90
2023-02-18T04:35:47.650Z,99.90
2023-02-18T04:38:14.644Z,99.90
2023-02-18T04:40:41.502Z,99.90
2023-02-18T04:43:08.342Z,99.90
2023-02-18T04:45:35.142Z,99.90
2023-02-18T04:48:01.929Z,99.90
2023-02-18T04:50:28.963Z,99.90
2023-02-18T04:52:55.786Z,99.90
2023-02-18T04:55:22.777Z,99.90
2023-02-18T04:57:49.624Z,99.90
2023-02-18T05:00:18.337Z,99.90
2023-02-18T05:02:46.256Z,99.90
2023-02-18T05:05:14.288Z,99.90
2023-02-18T05:07:42.487Z,99.90
2023-02-18T05:10:11.944Z,99.90
2023-02-18T05:12:38.879Z,99.90
2023-02-18T05:15:06.085Z,99.90
2023-02-18T05:17:32.953Z,99.90
2023-02-18T05:19:59.908Z,99.90
2023-02-18T05:22:27.110Z,99.90
2023-02-18T05:24:53.927Z,99.90
2023-02-18T05:27:20.731Z,99.90
2023-02-18T05:29:47.550Z,99.90
2023-02-18T05:32:14.443Z,99.90
2023-02-18T05:34:41.306Z,99.90
2023-02-18T05:37:09.007Z,99.90
2023-02-18T05:39:35.833Z,99.90
2023-02-18T05:42:02.664Z,99.90
2023-02-18T05:44:32.608Z,99.90
2023-02-18T05:47:01.137Z,99.90
2023-02-18T05:49:29.565Z,99.90
2023-02-18T05:51:57.067Z,99.90
2023-02-18T05:54:24.411Z,99.90
2023-02-18T05:56:51.731Z,99.90
2023-02-18T05:59:18.637Z,99.90
2023-02-18T06:01:46.281Z,99.90
2023-02-18T06:04:13.338Z,99.90
2023-02-18T06:06:40.166Z,99.90
2023-02-18T06:09:07.833Z,99.90
2023-02-18T06:11:35.465Z,99.90
2023-02-18T06:14:02.664Z,99.90
2023-02-18T06:16:29.824Z,99.90
2023-02-18T06:18:56.688Z,99.90
2023-02-18T06:21:23.672Z,99.90
2023-02-18T06:23:50.571Z,99.90
2023-02-18T06:26:17.420Z,99.90
2023-02-18T06:28:44.248Z,99.90
2023-02-18T06:31:11.263Z,99.90
2023-02-18T06:33:38.119Z,99.90
2023-02-18T06:36:08.366Z,99.90
2023-02-18T06:38:36.250Z,99.90
2023-02-18T06:41:03.444Z,99.90
2023-02-18T06:43:30.351Z,99.90
2023-02-18T06:45:57.226Z,99.90
2023-02-18T06:48:24.679Z,99.90
2023-02-18T06:50:51.616Z,99.90
2023-02-18T06:53:18.523Z,99.90
2023-02-18T06:55:45.658Z,99.90
2023-02-18T06:58:13.134Z,99.90
2023-02-18T07:00:40.054Z,99.90
2023-02-18T07:03:07.170Z,99.90
2023-02-18T07:05:34.320Z,99.90
2023-02-18T07:08:01.525Z,99.90
2023-02-18T07:10:28.416Z,99.90
2023-02-18T07:12:55.223Z,99.90
2023-02-18T07:15:24.345Z,99.90
2023-02-18T07:17:51.902Z,99.90
2023-02-18T07:20:20.206Z,99.90
2023-02-18T07:22:47.945Z,99.90
2023-02-18T07:25:15.001Z,99.90
2023-02-18T07:27:41.851Z,99.90
2023-02-18T07:30:09.427Z,99.90
2023-02-18T07:32:36.287Z,99.90
2023-02-18T07:35:04.670Z,99.90
2023-02-18T07:37:31.816Z,99.90
2023-02-18T07:39:58.687Z,99.90
2023-02-18T07:42:25.984Z,99.90
2023-02-18T07:44:52.762Z,99.90
2023-02-18T07:47:19.834Z,99.90
2023-02-18T07:49:47.290Z,99.90
2023-02-18T07:52:15.106Z,99.90
2023-02-18T07:54:42.646Z,99.90
2023-02-18T07:57:09.571Z,99.90
2023-02-18T07:59:36.586Z,99.90
2023-02-18T08:02:05.443Z,99.90
2023-02-18T08:04:32.401Z,99.90
2023-02-18T08:06:59.271Z,99.90
2023-02-18T08:09:26.138Z,99.90
2023-02-18T08:11:52.932Z,99.90
2023-02-18T08:14:19.750Z,99.90
2023-02-18T08:16:46.574Z,99.90
2023-02-18T08:19:13.406Z,99.90
2023-02-18T08:21:40.793Z,99.90
2023-02-18T08:24:08.308Z,99.90
2023-02-18T08:26:35.324Z,99.90
2023-02-18T08:29:02.291Z,99.90
2023-02-18T08:31:30.779Z,99.90
2023-02-18T08:34:00.512Z,99.90
2023-02-18T08:36:28.152Z,99.90
2023-02-18T08:38:55.146Z,99.90
2023-02-18T08:41:22.183Z,99.90
2023-02-18T08:43:49.627Z,99.90
2023-02-18T08:46:33.266Z,99.90
2023-02-18T08:49:03.904Z,99.90
2023-02-18T08:51:31.585Z,99.90
2023-02-18T08:53:58.676Z,99.90
2023-02-18T08:56:27.663Z,99.90
2023-02-18T08:58:54.545Z,99.90
2023-02-18T09:01:21.416Z,99.90
2023-02-18T09:03:48.800Z,99.90
2023-02-18T09:06:15.764Z,99.90
2023-02-18T09:08:42.687Z,99.90
2023-02-18T09:11:11.211Z,99.90
2023-02-18T09:13:38.627Z,99.90
2023-02-18T09:16:15.463Z,99.90
2023-02-18T09:18:42.420Z,99.90
2023-02-18T09:21:10.262Z,99.90
2023-02-18T09:23:37.502Z,99.90
2023-02-18T09:26:06.337Z,99.90
2023-02-18T09:28:33.831Z,99.90
2023-02-18T09:31:09.362Z,99.90
2023-02-18T09:33:38.020Z,99.90
2023-02-18T09:36:05.433Z,99.90
2023-02-18T09:38:32.288Z,99.90
2023-02-18T09:41:00.436Z,99.90
2023-02-18T09:43:45.896Z,99.90
2023-02-18T09:46:19.404Z,99.90
2023-02-18T09:48:48.119Z,99.90
2023-02-18T09:51:16.411Z,99.20
2023-02-18T09:53:45.420Z,97.90
2023-02-18T09:56:28.530Z,97.60
2023-02-18T09:58:58.248Z,98.40
2023-02-18T10:01:37.512Z,99.10
2023-02-18T10:04:13.448Z,99.40
2023-02-18T10:06:40.265Z,99.60
2023-02-18T10:09:21.459Z,99.90
2023-02-18T10:11:52.037Z,99.90
2023-02-18T10:14:19.672Z,99.60
2023-02-18T10:16:48.809Z,99.20
2023-02-18T10:19:23.335Z,99.90
2023-02-18T10:21:51.986Z,99.90
2023-02-18T10:24:35.758Z,99.20
2023-02-18T10:27:06.180Z,99.50
2023-02-18T10:29:33.413Z,99.90
2023-02-18T10:32:27.598Z,99.90
2023-02-18T10:35:27.835Z,99.20
2023-02-18T10:38:04.686Z,98.60
2023-02-18T10:40:59.950Z,98.70
2023-02-18T10:44:05.281Z,98.90
2023-02-18T10:46:41.494Z,98.70
2023-02-18T10:49:44.857Z,99.30
2023-02-18T10:52:17.582Z,98.60
2023-02-18T10:55:18.454Z,97.80
2023-02-18T10:57:49.452Z,96.50
2023-02-18T11:00:23.930Z,95.70
2023-02-18T11:03:23.112Z,94.10
2023-02-18T11:05:56.542Z,93.20
2023-02-18T11:08:27.696Z,92.30
2023-02-18T11:10:56.242Z,90.40
2023-02-18T11:13:32.883Z,86.40
2023-02-18T11:16:06.084Z,82.30
2023-02-18T11:18:39.115Z,80.60
2023-02-18T11:21:26.901Z,80.70
2023-02-18T11:23:55.692Z,82.70
2023-02-18T11:26:30.442Z,83.70
2023-02-18T11:29:06.171Z,83.70
2023-02-18T11:31:43.939Z,85.40
2023-02-18T11:34:27.195Z,85.00
2023-02-18T11:36:55.237Z,84.30
2023-02-18T11:39:26.574Z,83.10
2023-02-18T11:42:03.718Z,80.60
2023-02-18T11:44:32.707Z,80.40
2023-02-18T11:47:19.512Z,81.00
2023-02-18T11:50:08.749Z,81.70
2023-02-18T11:52:42.019Z,83.10
2023-02-18T11:55:30.688Z,84.20
2023-02-18T11:58:00.920Z,86.00
2023-02-18T12:00:39.109Z,85.70
2023-02-18T12:03:35.192Z,85.30
2023-02-18T12:06:09.646Z,86.30
2023-02-18T12:08:49.896Z,87.40
2023-02-18T12:11:26.933Z,87.30
2023-02-18T12:13:58.607Z,86.70
2023-02-18T12:16:31.803Z,88.10
2023-02-18T12:19:14.095Z,88.30
2023-02-18T12:22:02.041Z,88.30
2023-02-18T12:24:52.589Z,89.00
2023-02-18T12:27:37.116Z,88.20
2023-02-18T12:30:12.606Z,89.80
2023-02-18T12:32:52.365Z,90.10
2023-02-18T12:35:45.124Z,90.70
2023-02-18T12:38:43.725Z,91.50
2023-02-18T12:41:47.528Z,91.70
2023-02-18T12:44:30.833Z,92.10
2023-02-18T12:47:03.113Z,92.30
2023-02-18T12:50:14.270Z,92.70
2023-02-18T12:52:58.997Z,92.80
2023-02-18T12:55:34.474Z,92.80
2023-02-18T12:58:15.758Z,92.60
2023-02-18T13:00:54.327Z,92.30
2023-02-18T13:03:31.216Z,91.50
2023-02-18T13:06:25.353Z,90.20
2023-02-18T13:09:15.429Z,90.30
2023-02-18T13:11:53.946Z,88.00
2023-02-18T13:14:24.518Z,84.70
2023-02-18T13:16:55.120Z,83.50
2023-02-18T13:19:29.524Z,79.60
2023-02-18T13:22:03.879Z,79.10
2023-02-18T13:24:34.819Z,78.20
2023-02-18T13:27:27.789Z,79.60
2023-02-18T13:30:06.572Z,78.10
2023-02-18T13:32:57.905Z,76.60
2023-02-18T13:35:33.521Z,77.60
2023-02-18T13:38:03.836Z,79.40
2023-02-18T13:40:32.090Z,81.30
2023-02-18T13:43:37.250Z,81.70
2023-02-18T13:46:14.413Z,83.00
2023-02-18T13:48:47.146Z,86.40
2023-02-18T13:51:17.171Z,88.20
2023-02-18T13:53:51.292Z,90.40
2023-02-18T13:56:22.276Z,90.90
2023-02-18T13:58:52.861Z,91.40
2023-02-18T14:01:36.397Z,91.60
2023-02-18T14:04:04.116Z,92.20
2023-02-18T14:06:37.453Z,92.60
2023-02-18T14:09:14.547Z,92.70
2023-02-18T14:11:57.997Z,93.30
2023-02-18T14:14:27.778Z,93.20
2023-02-18T14:17:14.222Z,93.40
2023-02-18T14:19:41.121Z,93.90
2023-02-18T14:22:29.744Z,94.80
2023-02-18T14:25:03.104Z,95.90
2023-02-18T14:27:30.008Z,96.50
2023-02-18T14:30:07.310Z,97.10
2023-02-18T14:32:34.823Z,97.60
2023-02-18T14:35:39.897Z,97.80
2023-02-18T14:38:21.830Z,98.30
2023-02-18T14:41:04.574Z,99.30
2023-02-18T14:43:52.960Z,99.90
2023-02-18T14:46:57.583Z,99.90
2023-02-18T14:49:38.371Z,99.90
2023-02-18T14:52:11.588Z,99.90
2023-02-18T14:54:40.743Z,99.90
2023-02-18T14:57:14.873Z,99.80
2023-02-18T14:59:44.041Z,99.70
2023-02-18T15:02:23.055Z,99.90
2023-02-18T15:04:50.750Z,99.90
2023-02-18T15:07:21.091Z,99.90
2023-02-18T15:09:50.668Z,99.90
2023-02-18T15:12:20.960Z,99.90
2023-02-18T15:14:51.055Z,99.90
2023-02-18T15:17:21.864Z,99.90
2023-02-18T15:20:05.194Z,99.90
2023-02-18T15:22:34.063Z,99.90
2023-02-18T15:25:01.591Z,99.90
2023-02-18T15:27:31.123Z,99.90
2023-02-18T15:30:04.903Z,99.90
2023-02-18T15:32:32.979Z,99.90
2023-02-18T15:35:02.742Z,99.90
2023-02-18T15:37:30.869Z,99.90
2023-02-18T15:39:58.250Z,99.90
2023-02-18T15:42:36.676Z,99.90
2023-02-18T15:45:24.545Z,99.90
2023-02-18T15:47:56.917Z,99.90
2023-02-18T15:50:30.527Z,99.90
2023-02-18T15:53:00.435Z,99.90
2023-02-18T15:55:42.120Z,99.90
2023-02-18T15:58:32.905Z,99.90
2023-02-18T16:01:03.066Z,99.90
2023-02-18T16:03:32.554Z,99.90
2023-02-18T16:06:30.631Z,99.90
2023-02-18T16:09:04.225Z,99.90
2023-02-18T16:11:39.100Z,99.90
2023-02-18T16:14:06.278Z,99.90
2023-02-18T16:16:36.242Z,99.90
2023-02-18T16:19:04.397Z,99.90
2023-02-18T16:21:40.450Z,99.90
2023-02-18T16:24:28.345Z,99.90
2023-02-18T16:26:57.896Z,99.90
2023-02-18T16:29:41.583Z,99.90
2023-02-18T16:32:08.658Z,99.90
2023-02-18T16:34:36.118Z,99.90
2023-02-18T16:37:22.294Z,99.90
2023-02-18T16:39:52.088Z,99.90
2023-02-18T16:42:18.879Z,99.90
2023-02-18T16:44:46.809Z,99.90
2023-02-18T16:47:16.576Z,99.90
2023-02-18T16:49:46.248Z,99.90
2023-02-18T16:52:15.251Z,99.90
2023-02-18T16:54:42.091Z,99.90
2023-02-18T16:57:12.587Z,99.90
2023-02-18T16:59:39.378Z,99.90
2023-02-18T17:02:19.860Z,99.90
2023-02-18T17:04:46.773Z,99.90
2023-02-18T17:07:13.729Z,99.90
2023-02-18T17:09:40.651Z,99.90
2023-02-18T17:12:07.428Z,99.90
2023-02-18T17:14:34.266Z,99.90
2023-02-18T17:17:01.651Z,99.90
2023-02-18T17:19:28.493Z,99.90
2023-02-18T17:21:55.340Z,99.90
2023-02-18T17:24:22.100Z,99.90
2023-02-18T17:26:48.905Z,99.90
2023-02-18T17:29:15.760Z,99.90
2023-02-18T17:31:47.061Z,99.90
2023-02-18T17:34:28.700Z,99.90
2023-02-18T17:36:55.500Z,99.90
2023-02-18T17:39:22.677Z,99.90
2023-02-18T17:41:49.507Z,99.90
2023-02-18T17:44:18.841Z,99.90
2023-02-18T17:46:46.467Z,99.90
2023-02-18T17:49:13.287Z,99.90
2023-02-18T17:51:40.133Z,99.90
2023-02-18T17:54:15.130Z,99.90
2023-02-18T17:56:42.851Z,99.90
2023-02-18T17:59:09.742Z,99.90
2023-02-18T18:01:36.594Z,99.90
2023-02-18T18:04:03.575Z,99.90
2023-02-18T18:06:30.471Z,99.90
2023-02-18T18:08:57.269Z,99.90
2023-02-18T18:11:25.261Z,99.90
2023-02-18T18:13:53.217Z,99.90
2023-02-18T18:16:20.767Z,99.90
2023-02-18T18:18:47.589Z,99.90
2023-02-18T18:21:22.570Z,99.90
2023-02-18T18:23:50.365Z,99.90
2023-02-18T18:26:17.782Z,99.90
2023-02-18T18:28:44.614Z,99.90
2023-02-18T18:31:15.775Z,99.90
2023-02-18T18:33:43.235Z,99.90
2023-02-18T18:36:10.383Z,99.90
2023-02-18T18:38:37.385Z,99.90
2023-02-18T18:41:04.322Z,99.90
2023-02-18T18:43:33.377Z,99.90
2023-02-18T18:46:00.733Z,99.90
2023-02-18T18:48:27.614Z,99.90
2023-02-18T18:50:54.822Z,99.90
2023-02-18T18:53:28.670Z,99.90
2023-02-18T18:55:59.126Z,99.90
2023-02-18T18:58:26.250Z,99.90
2023-02-18T19:00:56.330Z,99.90
2023-02-18T19:03:25.561Z,99.90
2023-02-18T19:05:52.990Z,99.90
2023-02-18T19:08:20.679Z,99.90
2023-02-18T19:10:49.938Z,99.90
2023-02-18T19:13:24.043Z,99.90
2023-02-18T19:15:59.194Z,99.90
2023-02-18T19:18:26.015Z,99.90
2023-02-18T19:20:52.793Z,99.90
2023-02-18T19:23:19.561Z,99.90
2023-02-18T19:25:46.410Z,99.90
2023-02-18T19:28:15.944Z,99.90
2023-02-18T19:30:42.780Z,99.90
2023-02-18T19:33:12.607Z,99.90
2023-02-18T19:35:40.506Z,99.90
2023-02-18T19:38:09.830Z,99.90
2023-02-18T19:40:37.734Z,99.90
2023-02-18T19:43:05.350Z,99.90
2023-02-18T19:45:32.635Z,99.90
2023-02-18T19:48:00.665Z,99.90
2023-02-18T19:50:31.181Z,99.90
2023-02-18T19:52:59.177Z,99.90
2023-02-18T19:55:26.300Z,99.90
2023-02-18T19:57:53.887Z,99.90
2023-02-18T20:00:22.582Z,99.90
2023-02-18T20:02:50.411Z,99.90
2023-02-18T20:05:18.072Z,99.90
2023-02-18T20:07:47.795Z,99.90
2023-02-18T20:10:20.019Z,99.90
2023-02-18T20:12:52.294Z,99.90
2023-02-18T20:15:19.595Z,99.90
2023-02-18T20:17:46.417Z,99.90
2023-02-18T20:20:13.344Z,99.90
2023-02-18T20:22:40.160Z,99.90
2023-02-18T20:25:07.179Z,99.90
2023-02-18T20:27:36.621Z,99.90
2023-02-18T20:30:07.990Z,99.90
2023-02-18T20:32:35.635Z,99.90
2023-02-18T20:35:03.485Z,99.90
2023-02-18T20:37:30.623Z,99.90
2023-02-18T20:39:57.478Z,99.90
2023-02-18T20:42:24.321Z,99.90
2023-02-18T20:44:51.831Z,99.90
2023-02-18T20:47:18.766Z,99.90
2023-02-18T20:49:46.833Z,99.90
2023-02-18T20:52:14.948Z,99.90
2023-02-18T20:54:41.713Z,99.90
2023-02-18T20:57:09.127Z,99.90
2023-02-18T20:59:36.038Z,99.90
2023-02-18T21:02:03.548Z,99.90
2023-02-18T21:04:30.654Z,99.90
2023-02-18T21:06:57.468Z,99.90
2023-02-18T21:09:24.475Z,99.90
2023-02-18T21:11:51.444Z,99.90
2023-02-18T21:14:18.304Z,99.90
2023-02-18T21:16:45.419Z,99.90
2023-02-18T21:19:14.955Z,99.90
2023-02-18T21:21:43.229Z,99.90
2023-02-18T21:24:11.448Z,99.90
2023-02-18T21:26:38.765Z,99.90
2023-02-18T21:29:08.037Z,99.90
2023-02-18T21:31:40.770Z,99.90
2023-02-18T21:34:10.672Z,99.90
2023-02-18T21:36:37.464Z,99.90
2023-02-18T21:39:06.930Z,99.90
2023-02-18T21:41:35.456Z,99.90
2023-02-18T21:44:02.882Z,99.90
2023-02-18T21:46:32.024Z,99.90
2023-02-18T21:49:02.313Z,99.90
2023-02-18T21:51:49.880Z,99.90
2023-02-18T21:54:18.715Z,99.90
2023-02-18T21:56:45.565Z,99.90
2023-02-18T21:59:12.416Z,99.90
2023-02-18T22:01:39.590Z,99.90
2023-02-18T22:04:06.563Z,99.90
2023-02-18T22:06:33.866Z,99.90
2023-02-18T22:09:01.810Z,99.90
2023-02-18T22:11:29.862Z,99.90
2023-02-18T22:13:56.828Z,99.90
2023-02-18T22:16:23.937Z,99.90
2023-02-18T22:18:50.703Z,99.90
2023-02-18T22:21:18.700Z,99.90
2023-02-18T22:23:46.977Z,99.90
2023-02-18T22:26:13.897Z,99.90
2023-02-18T22:28:40.847Z,99.90
2023-02-18T22:31:09.767Z,99.90
2023-02-18T22:33:37.111Z,99.90
2023-02-18T22:36:07.260Z,99.90
2023-02-18T22:38:35.863Z,99.90
2023-02-18T22:41:08.640Z,99.90
2023-02-18T22:43:36.415Z,99.90
2023-02-18T22:46:11.860Z,99.90
2023-02-18T22:48:39.803Z,99.90
2023-02-18T22:51:06.586Z,99.90
2023-02-18T22:53:33.846Z,99.90
2023-02-18T22:56:02.475Z,99.90
2023-02-18T22:58:30.934Z,99.90
2023-02-18T23:00:57.851Z,99.90
2023-02-18T23:03:27.284Z,99.90
2023-02-18T23:05:55.044Z,99.90
2023-02-18T23:08:22.514Z,99.90
2023-02-18T23:11:03.344Z,99.90
2023-02-18T23:13:30.354Z,99.90
2023-02-18T23:16:02.816Z,99.90
2023-02-18T23:18:31.028Z,99.90
2023-02-18T23:21:17.729Z,99.90
2023-02-18T23:23:45.764Z,99.90
2023-02-18T23:26:13.463Z,99.90
2023-02-18T23:28:58.631Z,99.90
2023-02-18T23:31:27.382Z,99.90
2023-02-18T23:33:57.352Z,99.90
2023-02-18T23:36:31.895Z,99.90
2023-02-18T23:39:01.153Z,99.90
2023-02-18T23:41:29.283Z,99.90
2023-02-18T23:43:56.638Z,99.90
2023-02-18T23:46:26.505Z,99.90
2023-02-18T23:48:53.309Z,99.90
2023-02-18T23:51:22.112Z,99.90
2023-02-18T23:53:49.116Z,99.90
2023-02-18T23:56:18.452Z,99.90
2023-02-18T23:58:47.732Z,99.90
